Terminal Aerodrome Forecast
Issued by NWS Memphis, TN

Home | Current Version | Previous Version | Text Only | Print | Product List | Glossary On
Versions: 1 2 3 4 5 6 7 8 9 10 11 12 13 14 15 16 17
000
FTUS44 KMEG 010500 CCA
TAFJBR
TAF COR
KJBR 010533Z 0106/0206 00000KT P6SM BKN120
     FM011400 21006KT P6SM FEW150 BKN250
     FM011900 23008KT P6SM SCT090 BKN150
     FM020100 22004KT P6SM VCSH SCT040 OVC090=

USA.gov is the U.S. government's official web portal to all federal, state and local government web resources and services.